LiveATC.Net - Listen to live air traffic control over the Internet!

Find LiveATC Audio Streams


Airport/ARTCC Code

Frequency
(e.g., 124.400, 128.75)
Site-wide search

Browse LiveATC Feeds
LiveATC Coverage Map
Top 50 LiveATC Feeds
Bad Weather Areas

LiveATC FAQ
Offer a LiveATC Feed
Contact LiveATC.net
Press Inquiries

LiveATC on iPhone
LiveATC on Android

Windows Phone
Windows 8/10

LiveATC Mobile
(Mobile browser)

ATC Audio Archives
Interesting Recordings

LiveATC Forums

Home Page
About LiveATC.net
Make a Donation
LiveATC Store

Terms of Use
Privacy Policy

Canadian Air Freqs

AIRMETs/SIGMETs

FAA Airport Status
Nat'l Airspace Status
Arrival Demand Charts


Server Software By:
Icecast.org
Liquidsoap

Select an area of interest:
U.S. Feeds: Class B Airports | Class C Airports | Class D/Other Airports | ARTCC (Centers)
International Feeds: Canada | Europe | Oceania | Asia | South America | North/Central America | Africa
Misc Feeds: HF Feeds
Search by ICAO/IATA airport code:   (e.g., kbos, kjfk, lax, eham, etc.)


Currently Available Live Feeds: 1552
Status Updated: Wed Sep 28 2016 08:50:01 UTC


NOTICE

Unauthorized use prohibited. See LiveATC.net Terms of Service

Asia Airport Feeds

 

LTAF Tower/Approach
Adana, Turkey

Feed Status: DOWN
Offline since: 2016-09-14 10:15:03 UTC
LTAF 280650Z 08004KT 030V120 CAVOK 26/18 Q1017 NOSIG

Adana Approach: 118.300
Adana Tower: 131.100
Adana Tower: 121.100

HF CWP 8903 (Archives)
Manila, Philippines

Feed Status: UP

Click on your favorite media player to listen:
Listen with WinAmp to HF CWP 8903  Listen with iTunes to HF CWP 8903  Click here to listen if using Real Player  Click here to listen if using Windows Media Player

Or simply listen in your browser:

Listen right in your browser(in browser, requires Flash)


Listeners: 0 out of 598 total

HF CWP: 8.903

HF SEA-2 8942 (Archives)
Manila, Philippines

Feed Status: UP

Click on your favorite media player to listen:
Listen with WinAmp to HF SEA-2 8942  Listen with iTunes to HF SEA-2 8942  Click here to listen if using Real Player  Click here to listen if using Windows Media Player

Or simply listen in your browser:

Listen right in your browser(in browser, requires Flash)


Listeners: 0 out of 598 total

HF SEA-2: 8.942

HF SPAC 8867
Manila, Philippines

Feed Status: DOWN
Offline since: 2016-09-26 12:17:02 UTC

HF SPAC: 8.867

OKBK Gnd/Twr/App/Radar (Archives)
Kuwait City, Kuwait

Feed Status: UP

Click on your favorite media player to listen:
Listen with WinAmp to OKBK Gnd/Twr/App/Radar  Listen with iTunes to OKBK Gnd/Twr/App/Radar  Click here to listen if using Real Player  Click here to listen if using Windows Media Player

Or simply listen in your browser:

Listen right in your browser(in browser, requires Flash)

OKBK 280700Z 29005KT CAVOK 40/05 Q1011 NOSIG


Listeners: 1 out of 598 total

Kuwait Approach: 121.300
Kuwait Approach: 124.800
Kuwait Ground: 121.700
Kuwait Radar (Center): 125.300
Kuwait Tower: 118.300

OMDB Arrival (Archives)
Dubai, United Arab Emirates

Feed Status: UP

Click on your favorite media player to listen:
Listen with WinAmp to OMDB Arrival  Listen with iTunes to OMDB Arrival  Click here to listen if using Real Player  Click here to listen if using Windows Media Player

Or simply listen in your browser:

Listen right in your browser(in browser, requires Flash)

OMDB 280600Z 22008KT 170V240 CAVOK 33/26 Q1010 NOSIG


Listeners: 0 out of 598 total

Dubai Arrival: 124.900

OMDB Clearance Delivery (Archives)
Dubai, United Arab Emirates

Feed Status: UP

Click on your favorite media player to listen:
Listen with WinAmp to OMDB Clearance Delivery  Listen with iTunes to OMDB Clearance Delivery  Click here to listen if using Real Player  Click here to listen if using Windows Media Player

Or simply listen in your browser:

Listen right in your browser(in browser, requires Flash)

OMDB 280600Z 22008KT 170V240 CAVOK 33/26 Q1010 NOSIG


Listeners: 0 out of 598 total

Dubai Clearance Delivery: 120.350

OMDB Ground (Primary) (Archives)
Dubai, United Arab Emirates

Feed Status: UP

Click on your favorite media player to listen:
Listen with WinAmp to OMDB Ground (Primary)  Listen with iTunes to OMDB Ground (Primary)  Click here to listen if using Real Player  Click here to listen if using Windows Media Player

Or simply listen in your browser:

Listen right in your browser(in browser, requires Flash)

OMDB 280600Z 22008KT 170V240 CAVOK 33/26 Q1010 NOSIG


Listeners: 0 out of 598 total

Dubai Ground (Primary): 118.850

OMDB Ground (Secondary) (Archives)
Dubai, United Arab Emirates

Feed Status: UP

Click on your favorite media player to listen:
Listen with WinAmp to OMDB Ground (Secondary)  Listen with iTunes to OMDB Ground (Secondary)  Click here to listen if using Real Player  Click here to listen if using Windows Media Player

Or simply listen in your browser:

Listen right in your browser(in browser, requires Flash)

OMDB 280600Z 22008KT 170V240 CAVOK 33/26 Q1010 NOSIG


Listeners: 0 out of 598 total

Dubai Ground (Secondary): 118.350

OMDB North Dep (Archives)
Dubai, United Arab Emirates

Feed Status: UP

Click on your favorite media player to listen:
Listen with WinAmp to OMDB North Dep  Listen with iTunes to OMDB North Dep  Click here to listen if using Real Player  Click here to listen if using Windows Media Player

Or simply listen in your browser:

Listen right in your browser(in browser, requires Flash)

OMDB 280600Z 22008KT 170V240 CAVOK 33/26 Q1010 NOSIG


Listeners: 0 out of 598 total

Dubai Departure (North): 124.450

OMDB Tower #1 (Archives)
Dubai, United Arab Emirates

Feed Status: UP

Click on your favorite media player to listen:
Listen with WinAmp to OMDB Tower #1  Listen with iTunes to OMDB Tower #1  Click here to listen if using Real Player  Click here to listen if using Windows Media Player

Or simply listen in your browser:

Listen right in your browser(in browser, requires Flash)

OMDB 280600Z 22008KT 170V240 CAVOK 33/26 Q1010 NOSIG


Listeners: 0 out of 598 total

Dubai Tower: 119.550

OMDB Tower #2 (Archives)
Dubai, United Arab Emirates

Feed Status: UP

Click on your favorite media player to listen:
Listen with WinAmp to OMDB Tower #2  Listen with iTunes to OMDB Tower #2  Click here to listen if using Real Player  Click here to listen if using Windows Media Player

Or simply listen in your browser:

Listen right in your browser(in browser, requires Flash)

OMDB 280600Z 22008KT 170V240 CAVOK 33/26 Q1010 NOSIG


Listeners: 0 out of 598 total

Dubai Tower: 118.750

OMDB Tower (both) (Archives)
Dubai, United Arab Emirates

Feed Status: UP

Click on your favorite media player to listen:
Listen with WinAmp to OMDB Tower (both)  Listen with iTunes to OMDB Tower (both)  Click here to listen if using Real Player  Click here to listen if using Windows Media Player

Or simply listen in your browser:

Listen right in your browser(in browser, requires Flash)

OMDB 280600Z 22008KT 170V240 CAVOK 33/26 Q1010 NOSIG


Listeners: 0 out of 598 total

Dubai Tower: 118.750
Dubai Tower: 119.550

OMSJ Tower (Archives)
Dubai, United Arab Emirates

Feed Status: UP

Click on your favorite media player to listen:
Listen with WinAmp to OMSJ Tower  Listen with iTunes to OMSJ Tower  Click here to listen if using Real Player  Click here to listen if using Windows Media Player

Or simply listen in your browser:

Listen right in your browser(in browser, requires Flash)

OMSJ 280600Z 23008KT 200V260 8000 NSC 33/25 Q1010


Listeners: 0 out of 598 total

Sharjah Tower: 118.600

OPKC Gnd/Twr/Radar (Archives)
Karachi, Pakistan

Feed Status: UP

Click on your favorite media player to listen:
Listen with WinAmp to OPKC Gnd/Twr/Radar  Listen with iTunes to OPKC Gnd/Twr/Radar  Click here to listen if using Real Player  Click here to listen if using Windows Media Player

Or simply listen in your browser:

Listen right in your browser(in browser, requires Flash)

OPKC 280655Z 25018KT 6000 SCT020 BKN030 30/21 Q1008 TEMPO 25015G25KT


Listeners: 1 out of 598 total

Karachi Ground: 121.600
Karachi Radar: 125.500
Karachi Tower: 118.300

OPLA ATIS (Archives)
Lahore, Pakistan

Feed Status: UP

Click on your favorite media player to listen:
Listen with WinAmp to OPLA ATIS  Listen with iTunes to OPLA ATIS  Click here to listen if using Real Player  Click here to listen if using Windows Media Player

Or simply listen in your browser:

Listen right in your browser(in browser, requires Flash)

OPLA 280655Z 30003KT 4000 HZ FEW040 SCT100 35/22 Q1007/A29.74 NOSIG


Listeners: 0 out of 598 total

Lahore ATIS: 126.300

OPLA/OPLH Gnd/Twr/App (Archives)
Lahore, Pakistan

Feed Status: UP

Click on your favorite media player to listen:
Listen with WinAmp to OPLA/OPLH Gnd/Twr/App  Listen with iTunes to OPLA/OPLH Gnd/Twr/App  Click here to listen if using Real Player  Click here to listen if using Windows Media Player

Or simply listen in your browser:

Listen right in your browser(in browser, requires Flash)

OPLA 280655Z 30003KT 4000 HZ FEW040 SCT100 35/22 Q1007/A29.74 NOSIG


Listeners: 4 out of 598 total

Lahore Approach: 121.300
Lahore Approach: 125.300
Lahore Control: 127.500
Lahore Ground: 118.400
Lahore Tower: 118.100
Lahore Tower: 121.800
Walton (OPLH) Tower: 119.400

OPLA/OPLH Gnd/Twr/App (Archives)
Lahore, Pakistan

Feed Status: UP

Click on your favorite media player to listen:
Listen with WinAmp to OPLA/OPLH Gnd/Twr/App  Listen with iTunes to OPLA/OPLH Gnd/Twr/App  Click here to listen if using Real Player  Click here to listen if using Windows Media Player

Or simply listen in your browser:

Listen right in your browser(in browser, requires Flash)

OPLA 280655Z 30003KT 4000 HZ FEW040 SCT100 35/22 Q1007/A29.74 NOSIG


Listeners: 4 out of 598 total

Lahore Approach: 121.300
Lahore Approach: 125.300
Lahore Control: 127.500
Lahore Ground: 118.400
Lahore Tower: 118.100
Lahore Tower: 121.800
Walton (OPLH) Tower: 119.400

OPMT Twr/App
Multan, Pakistan

Feed Status: DOWN
Offline since: 2016-05-02 19:43:03 UTC
OPMT 280658Z 09004KT 5000 HZ NSC 37/23 Q1005 NOSIG

Multan Approach/Departure: 123.150
Multan Tower: 119.100

OPRN Approach (Archives)
Islamabad, Pakistan

Feed Status: UP

Click on your favorite media player to listen:
Listen with WinAmp to OPRN Approach  Listen with iTunes to OPRN Approach  Click here to listen if using Real Player  Click here to listen if using Windows Media Player

Or simply listen in your browser:

Listen right in your browser(in browser, requires Flash)

OPRN 280700Z 09010KT 2000 HZ SCT025 29/23 Q1009.6/29.81


Listeners: 0 out of 598 total

Islamabad Approach: 124.900

OPRN ATIS (Archives)
Islamabad, Pakistan

Feed Status: UP

Click on your favorite media player to listen:
Listen with WinAmp to OPRN ATIS  Listen with iTunes to OPRN ATIS  Click here to listen if using Real Player  Click here to listen if using Windows Media Player

Or simply listen in your browser:

Listen right in your browser(in browser, requires Flash)

OPRN 280700Z 09010KT 2000 HZ SCT025 29/23 Q1009.6/29.81


Listeners: 0 out of 598 total

Islamabad ATIS: 129.600

OPRN Tower (Archives)
Islamabad, Pakistan

Feed Status: UP

Click on your favorite media player to listen:
Listen with WinAmp to OPRN Tower  Listen with iTunes to OPRN Tower  Click here to listen if using Real Player  Click here to listen if using Windows Media Player

Or simply listen in your browser:

Listen right in your browser(in browser, requires Flash)

OPRN 280700Z 09010KT 2000 HZ SCT025 29/23 Q1009.6/29.81


Listeners: 0 out of 598 total

Islamabad Tower: 123.700

ORMM Gnd/Twr/App (Archives)
Basra, Iraq

Feed Status: UP

Click on your favorite media player to listen:
Listen with WinAmp to ORMM Gnd/Twr/App  Listen with iTunes to ORMM Gnd/Twr/App  Click here to listen if using Real Player  Click here to listen if using Windows Media Player

Or simply listen in your browser:

Listen right in your browser(in browser, requires Flash)

ORMM 280700Z 20012KT 6000 NSC 38/04 Q1010 NOSIG


Listeners: 1 out of 598 total

Basra Approach: 119.400
Basra Ground: 125.900
Basra Ops: 132.700
Basra Tower: 118.700

RCKH Ground
Kaohsiung, Taiwan

Feed Status: DOWN
Offline since: 2015-05-24 11:58:03 UTC
RCKH 280652Z 20012KT 160V250 0600 R27/0800 VCTS +SHRA SCT002 BKN004 SCT010CB OVC020 26/24 Q1002 WS R27 TEMPO 1500 +SHRA RMK 20020G40KT TS SW-W-NW MOV NE A2959

Kaohsiung Ground: 121.900

RCKH Tower
Kaohsiung, Taiwan

Feed Status: DOWN
Offline since: 2015-06-03 18:36:03 UTC
RCKH 280652Z 20012KT 160V250 0600 R27/0800 VCTS +SHRA SCT002 BKN004 SCT010CB OVC020 26/24 Q1002 WS R27 TEMPO 1500 +SHRA RMK 20020G40KT TS SW-W-NW MOV NE A2959

Kaohsiung Tower: 118.700

RCSS Approach
Taipei, Taiwan

Feed Status: DOWN
Offline since: 2016-09-22 15:54:03 UTC
RCSS 280630Z 23008KT 150V270 9999 FEW025 SCT040 BKN150 32/24 Q0998 NOSIG RMK A2949

Taipei Approach: 119.700

RCSS Ground/Delivery (Archives)
Taipei, Taiwan

Feed Status: UP

Click on your favorite media player to listen:
Listen with WinAmp to RCSS Ground/Delivery  Listen with iTunes to RCSS Ground/Delivery  Click here to listen if using Real Player  Click here to listen if using Windows Media Player

Or simply listen in your browser:

Listen right in your browser(in browser, requires Flash)

RCSS 280630Z 23008KT 150V270 9999 FEW025 SCT040 BKN150 32/24 Q0998 NOSIG RMK A2949

RCSS Flight Activity (Flightaware)

Listeners: 2 out of 598 total

Songshan Clearance Delivery: 121.200
Songshan Ground: 121.900

RCSS Tower (Archives)
Taipei, Taiwan

Feed Status: UP

Click on your favorite media player to listen:
Listen with WinAmp to RCSS Tower  Listen with iTunes to RCSS Tower  Click here to listen if using Real Player  Click here to listen if using Windows Media Player

Or simply listen in your browser:

Listen right in your browser(in browser, requires Flash)

RCSS 280630Z 23008KT 150V270 9999 FEW025 SCT040 BKN150 32/24 Q0998 NOSIG RMK A2949

RCSS Flight Activity (Flightaware)

Listeners: 5 out of 598 total

Songshan Tower: 118.100

RCTP ATIS
Taipei, Taiwan

Feed Status: DOWN
Offline since: 2016-09-19 05:11:04 UTC
RCTP 280630Z 33003KT 300V030 8000 FEW020 SCT060 BKN180 31/26 Q0999 NOSIG RMK A2950

Taipei ATIS: 127.600

RCTP Tower (Archives)
Taipei, Taiwan

Feed Status: UP

Click on your favorite media player to listen:
Listen with WinAmp to RCTP Tower  Listen with iTunes to RCTP Tower  Click here to listen if using Real Player  Click here to listen if using Windows Media Player

Or simply listen in your browser:

Listen right in your browser(in browser, requires Flash)

RCTP 280630Z 33003KT 300V030 8000 FEW020 SCT060 BKN180 31/26 Q0999 NOSIG RMK A2950

RCTP Flight Activity (Flightaware)

Listeners: 6 out of 598 total

Taipei Tower: 118.700

RJSF RDO (Archives)
Sukagawa, Japan

Feed Status: UP

Click on your favorite media player to listen:
Listen with WinAmp to RJSF RDO  Listen with iTunes to RJSF RDO  Click here to listen if using Real Player  Click here to listen if using Windows Media Player

Or simply listen in your browser:

Listen right in your browser(in browser, requires Flash)

RJSF 280600Z 12005KT 7000 -SHRA FEW005 SCT040 BKN070 22/22 Q1012

RJSF Flight Activity (Flightaware)

Listeners: 4 out of 598 total

Fukushima Radio: 118.050

RJTT App/Dep (Archives)
Tokyo, Japan

Feed Status: UP

Click on your favorite media player to listen:
Listen with WinAmp to RJTT App/Dep  Listen with iTunes to RJTT App/Dep  Click here to listen if using Real Player  Click here to listen if using Windows Media Player

Or simply listen in your browser:

Listen right in your browser(in browser, requires Flash)

RJTT 280630Z 23013KT 9999 -SHRA FEW025 SCT030 BKN045 30/24 Q1010 BECMG TL0700 31008KT

RJTT Flight Activity (Flightaware)

Listeners: 11 out of 598 total

Tokyo Approach: 119.100
Tokyo Approach: 119.400
Tokyo Departure: 120.800
Tokyo Departure: 126.000

RJTT Tokyo Control (Archives)
Tokyo, Japan

Feed Status: UP

Click on your favorite media player to listen:
Listen with WinAmp to RJTT Tokyo Control  Listen with iTunes to RJTT Tokyo Control  Click here to listen if using Real Player  Click here to listen if using Windows Media Player

Or simply listen in your browser:

Listen right in your browser(in browser, requires Flash)

RJTT 280630Z 23013KT 9999 -SHRA FEW025 SCT030 BKN045 30/24 Q1010 BECMG TL0700 31008KT

RJTT Flight Activity (Flightaware)

Listeners: 25 out of 598 total

Tokyo Control: 133.700
Tokyo Control: 125.900
Tokyo Control: 120.500

RJTT Twr/TCA (Archives)
Tokyo, Japan

Feed Status: UP

Click on your favorite media player to listen:
Listen with WinAmp to RJTT Twr/TCA  Listen with iTunes to RJTT Twr/TCA  Click here to listen if using Real Player  Click here to listen if using Windows Media Player

Or simply listen in your browser:

Listen right in your browser(in browser, requires Flash)

RJTT 280630Z 23013KT 9999 -SHRA FEW025 SCT030 BKN045 30/24 Q1010 BECMG TL0700 31008KT

RJTT Flight Activity (Flightaware)

Listeners: 13 out of 598 total

Tokyo TCA: 124.750
Tokyo Tower: 124.350
Tokyo Tower: 118.725
Tokyo Tower: 118.575
Tokyo Tower: 118.100

RKSG Gnd/Twr/App (Archives)
Pyeongtaek, Korea, Republic of

Feed Status: UP

Click on your favorite media player to listen:
Listen with WinAmp to RKSG Gnd/Twr/App  Listen with iTunes to RKSG Gnd/Twr/App  Click here to listen if using Real Player  Click here to listen if using Windows Media Player

Or simply listen in your browser:

Listen right in your browser(in browser, requires Flash)

RKSG 280658Z 30005KT 4SM HZ BKN021 BKN110 24/19 A2994 RMK AO2A SLP141 T02360191 $

RKSG Flight Activity (Flightaware)

Listeners: 1 out of 598 total

Desiderio Final: 255.800
Desiderio GCA: 226.800
Desiderio GCA: 127.000
Desiderio Ground (Camp Humphreys A-511 AAF): 119.500
Desiderio Ground UHF: 229.700
Desiderio Ops: 294.100
Desiderio Tower (Camp Humphreys A-511 AAF): 122.500
Desiderio Tower UHF: 257.800

RKRR Incheon Control (Archives)
Incheon, Korea, Republic of

Feed Status: UP

Click on your favorite media player to listen:
Listen with WinAmp to RKRR Incheon Control  Listen with iTunes to RKRR Incheon Control  Click here to listen if using Real Player  Click here to listen if using Windows Media Player

Or simply listen in your browser:

Listen right in your browser(in browser, requires Flash)

RKSI 280630Z 01002KT 8000 FEW012 BKN025 OVC110 21/17 Q1014 NOSIG

RKSI Flight Activity (Flightaware)

Listeners: 7 out of 598 total

Incheon Control North Sector (Primary): 128.700
Incheon Control North Sector (Secondary): 132.800
Incheon Control Northwest Sector (Primary): 126.175
Incheon Control Northwest Sector (Secondary): 123.725

RKSO Gnd/Twr/App (Archives)
Pyeongtaek, Korea, Republic of

Feed Status: UP

Click on your favorite media player to listen:
Listen with WinAmp to RKSO Gnd/Twr/App  Listen with iTunes to RKSO Gnd/Twr/App  Click here to listen if using Real Player  Click here to listen if using Windows Media Player

Or simply listen in your browser:

Listen right in your browser(in browser, requires Flash)

RKSO 280658Z VRB03KT 6SM HZ FEW020 BKN200 24/19 A2991 RMK AO2A OVC V BKN SLP131 T02390194 $

RKSO Flight Activity (Flightaware)

Listeners: 2 out of 598 total

25 FS Ops: 229.000
36FS Ops: 371.300
Osan Air Base Approach/Departure: 127.900
Osan Air Base Approach/Departure: 133.650
Osan Air Base Ground: 132.450
Osan Air Base Tower: 122.100
Osan App/Dep UHF: 306.600
Osan App/Dep UHF: 234.300
Osan App/Dep UHF (possibly inactive): 306.300
Osan App/Dep UHF (possibly inactive): 363.100
Osan Ground UHF: 253.700
Osan SAR: 282.800
Osan SAR: 381.000
Osan SOF: 299.800
Osan Tower UHF: 308.800
Stallion Ops: 276.200

RPLL Approach/Departure
Manila, Philippines

Feed Status: DOWN
Offline since: 2016-09-27 05:03:04 UTC
RPLL 280700Z 24005KT 200V270 9000 -RA SCT020 OVC090 27/26 Q1007 NOSIG RMK A2974

Manila Approach/Departure: 121.100
Manila Approach/Departure: 119.700
Manila Center/Control: 128.300

RPLL Tower (Archives)
Manila, Philippines

Feed Status: UP

Click on your favorite media player to listen:
Listen with WinAmp to RPLL Tower  Listen with iTunes to RPLL Tower  Click here to listen if using Real Player  Click here to listen if using Windows Media Player

Or simply listen in your browser:

Listen right in your browser(in browser, requires Flash)

RPLL 280700Z 24005KT 200V270 9000 -RA SCT020 OVC090 27/26 Q1007 NOSIG RMK A2974

RPLL Flight Activity (Flightaware)

Listeners: 2 out of 598 total

Manila Tower: 118.100

RPUN Tower (Archives)
Pili-Luzon Island, Philippines

Feed Status: UP

Click on your favorite media player to listen:
Listen with WinAmp to RPUN Tower  Listen with iTunes to RPUN Tower  Click here to listen if using Real Player  Click here to listen if using Windows Media Player

Or simply listen in your browser:

Listen right in your browser(in browser, requires Flash)

METAR NOT AVAILABLE

RPUN Flight Activity (Flightaware)

Listeners: 0 out of 598 total

Naga Tower: 122.100

HF CWP/SEA (Archives)
Pyeongtaek, Korea, Republic of

Feed Status: UP

Click on your favorite media player to listen:
Listen with WinAmp to HF CWP/SEA  Listen with iTunes to HF CWP/SEA  Click here to listen if using Real Player  Click here to listen if using Windows Media Player

Or simply listen in your browser:

Listen right in your browser(in browser, requires Flash)


Listeners: 0 out of 598 total

CWP 1 (Tokyo): 11.384
CWP 1/2 (Tokyo): 13.300
CWP-1/2 (San Francisco): 17.904
CWP-1/2 (Tokyo/Manila): 8.903
CWP-1/2 (Tokyo/San Francisco): 21.985
SEA-2 (Manila): 8.942

UAAA Approach (Archives)
Almaty, Kazakhstan

Feed Status: UP

Click on your favorite media player to listen:
Listen with WinAmp to UAAA Approach  Listen with iTunes to UAAA Approach  Click here to listen if using Real Player  Click here to listen if using Windows Media Player

Or simply listen in your browser:

Listen right in your browser(in browser, requires Flash)

UAAA 280630Z 18002MPS 140V220 9999 SCT050CB BKN100 27/05 Q1013 R05L/CLRD65 R05R/1///60 NOSIG

UAAA Flight Activity (Flightaware)

Listeners: 0 out of 598 total

Almaty Approach: 124.800

UAAA Tower (Archives)
Almaty, Kazakhstan

Feed Status: UP

Click on your favorite media player to listen:
Listen with WinAmp to UAAA Tower  Listen with iTunes to UAAA Tower  Click here to listen if using Real Player  Click here to listen if using Windows Media Player

Or simply listen in your browser:

Listen right in your browser(in browser, requires Flash)

UAAA 280630Z 18002MPS 140V220 9999 SCT050CB BKN100 27/05 Q1013 R05L/CLRD65 R05R/1///60 NOSIG

UAAA Flight Activity (Flightaware)

Listeners: 0 out of 598 total

Almaty Tower: 119.400

UAAA Tower/Approach (Archives)
Almaty, Kazakhstan

Feed Status: UP

Click on your favorite media player to listen:
Listen with WinAmp to UAAA Tower/Approach  Listen with iTunes to UAAA Tower/Approach  Click here to listen if using Real Player  Click here to listen if using Windows Media Player

Or simply listen in your browser:

Listen right in your browser(in browser, requires Flash)

UAAA 280630Z 18002MPS 140V220 9999 SCT050CB BKN100 27/05 Q1013 R05L/CLRD65 R05R/1///60 NOSIG

UAAA Flight Activity (Flightaware)

Listeners: 0 out of 598 total

Almaty Approach: 124.800
Almaty Tower: 119.400

UIII Irkutsk Control (Archives)
Irkutsk, Russia

Feed Status: UP

Click on your favorite media player to listen:
Listen with WinAmp to UIII Irkutsk Control  Listen with iTunes to UIII Irkutsk Control  Click here to listen if using Real Player  Click here to listen if using Windows Media Player

Or simply listen in your browser:

Listen right in your browser(in browser, requires Flash)

UIII 280630Z 25002MPS CAVOK 15/03 Q1012 R30/60D NOSIG RMK QFE715/0953

UIII Flight Activity (Flightaware)

Listeners: 3 out of 598 total

Irkutsk Approach: 125.200
Irkutsk Control (Sector 1): 133.400
Irkutsk Control (Sector 2): 124.700
Irkutsk Control (Sector 3): 134.100
Irkutsk Ground: 121.700
Irkutsk Radar: 119.300
Irkutsk Tower: 118.100

Notes:
Maximum traffic from 1700-0900 UTC
Traffic from Europe to Asia (Lufthansa, Air France, KLM, AA, Air Canada, Cathay, Singapore), all Chinese, Korean routes to Europe.

UNKL Gnd/Twr/App (Archives)
Krasnoyarsk, Russia

Feed Status: UP

Click on your favorite media player to listen:
Listen with WinAmp to UNKL Gnd/Twr/App  Listen with iTunes to UNKL Gnd/Twr/App  Click here to listen if using Real Player  Click here to listen if using Windows Media Player

Or simply listen in your browser:

Listen right in your browser(in browser, requires Flash)

UNKL 280630Z 26005MPS CAVOK 13/M00 Q1015 R29/CLRD65 NOSIG RMK QFE735

UNKL Flight Activity (Flightaware)

Listeners: 0 out of 598 total

Krasnoyarsk Approach: 127.700
Krasnoyarsk Ground: 121.700
Krasnoyarsk Krug: 122.000
Krasnoyarsk Tower: 118.300

UNNT Gnd/Twr/App/Radar/Misc (Archives)
Novosibirsk, Russia

Feed Status: UP

Click on your favorite media player to listen:
Listen with WinAmp to UNNT Gnd/Twr/App/Radar/Misc  Listen with iTunes to UNNT Gnd/Twr/App/Radar/Misc  Click here to listen if using Real Player  Click here to listen if using Windows Media Player

Or simply listen in your browser:

Listen right in your browser(in browser, requires Flash)

UNNT 280630Z 25002MPS 210V310 9999 FEW043 15/01 Q1018 R25/090070 R34/090070 NOSIG RMK QFE753/1005

UNNT Flight Activity (Flightaware)

Listeners: 2 out of 598 total

ACC_Novosibirsk-Control (Military): 128.500
ACC_Novosibirsk-Control (Southeast): 126.100
ACC_Novosibirsk-Control (West): 127.000
GPA_Kristallik (airfield Severniy): 123.425
GPA_Palma (airfield Mochische): 118.000
GPA_Sernisiy (airfield Chkalovskiy): 124.750
GPA_Tomsk Information 1: 134.500
GPA_Vihrevoy (airfield Evsino): 126.000
MIL_Larek: 123.750
MIL_Maneken (airfield Chkalovskiy): 123.550
MIL_Novosibirsk-1 (airbase Tolmachevo: 124.000
MIL_Noyabr 31: 124.900
MIL_Polyana: 129.800
MIL_Stvorka: 130.750
MIL_Trimaran: 124.500
OVB_Apron: 118.800
OVB_Backup frequency: 127.100
OVB_Novosibirsk-Approach: 127.500
OVB_Novosibirsk-Ground: 121.700
OVB_Novosibirsk-Radar: 122.000
OVB_Novosibirsk-Tower: 118.500
OVB_Novosibirsk-Transit: 131.600
OVB_S7 Service: 131.925
OVB_Tech. room: 118.900
SP_Air-to-Air: 123.450
SP_Air-to-Air 2: 123.400
SP_China chat: 136.975
SP_Common backup frequency: 129.000
SP_Emergency: 121.500
SP_Emergency 2: 123.100
SP_Flyoff: 124.375
SURF_Boarding: 163.425
SURF_Cargo operating: 163.300
SURF_Ground surf: 163.375
SURF_O&D Service: 163.325
SURF_Registration: 163.625
SURF_Security: 163.750
SURF_Supplies: 163.450
SURF_Tower surf: 163.650
SURF_Vehicles: 163.200

UNOO Gnd/Tower/App
Omsk, Russia

Feed Status: DOWN
Offline since: 2016-09-04 19:41:04 UTC
UNOO 280630Z 09004MPS CAVOK 16/01 Q1015 R07/CLRD60 NOSIG RMK QFE753

Aerodrom Kalachevo: 123.300
Aerodrom Marianovka: 123.000
Emergency/Guard: 121.500
Novosibirsk Control (Sector 7): 132.500
Novosibirsk Control (Sector 8): 132.900
Omsk Approach (FL060-FL265): 131.200
Omsk Apron: 118.800
Omsk Start/Radar: 119.000
Omsk Taxiing: 121.700
Omsk Transit: 131.700
UNOS/OMSK-Severny: 124.000

UNTT Gnd/Info/Radar/Control (Archives)
Tomsk, Russia

Feed Status: UP

Click on your favorite media player to listen:
Listen with WinAmp to UNTT Gnd/Info/Radar/Control  Listen with iTunes to UNTT Gnd/Info/Radar/Control  Click here to listen if using Real Player  Click here to listen if using Windows Media Player

Or simply listen in your browser:

Listen right in your browser(in browser, requires Flash)

UNTT Flight Activity (Flightaware)

Listeners: 0 out of 598 total

Krasnoyarsk Control (Sector 2): 133.300
Novosibirsk Control (Sector 2): 126.100
Novosibirsk Control (Sector 3): 129.300
Novosibirsk Control (Sector 5): 132.300
Tomsk Ground: 118.800
Tomsk Informaciya: 126.000
Tomsk Krug (Radar): 127.300
Troynik (Golovino): 122.400

USCC Gnd/Twr/App/Control
Chelyabinsk, Russia

Feed Status: DOWN
Offline since: 2016-09-26 14:00:05 UTC
USCC 280630Z 04003MPS CAVOK 14/04 Q1013 R27/000060 NOSIG RMK QFE740

Chelyabinsk Approach: 124.700
Chelyabinsk Control (North): 125.400
Chelyabinsk Control (South): 125.500
Chelyabinsk Tower: 125.200
Chelyabinsk Transit: 131.600
Emergency/Guard: 121.500
Hvoyniy: 121.925
Military Flight Control: 128.500
Objektivniy (engineering service): 125.700
Peklo Tower: 131.350
Pilot-to-Pilot (Air to Air): 123.450
Plavnik - Dostupniy - Gavan Tower: 124.000
Plavnik-Peleng: 130.000
Pribautka: 122.250
Stolitsa: 120.250

USTR Gnd/Twr/App (Archives)
Tyumen, Russia

Feed Status: UP

Click on your favorite media player to listen:
Listen with WinAmp to USTR Gnd/Twr/App  Listen with iTunes to USTR Gnd/Twr/App  Click here to listen if using Real Player  Click here to listen if using Windows Media Player

Or simply listen in your browser:

Listen right in your browser(in browser, requires Flash)

USTR 280630Z 05004MPS 9999 BKN006 BKN020 09/08 Q1016 R03/CLRD65 NOSIG RMK QBB180 QFE752/1003

USTR Flight Activity (Flightaware)

Listeners: 0 out of 598 total

Tyumen Approach: 126.100
Tyumen Control: 132.600
Tyumen Control: 133.600
Tyumen Info (Regional): 133.400
Tyumen Start: 118.200
Tyumen Transit: 131.800

VCBI Radar (Archives)
Colombo, Sri Lanka

Feed Status: UP

Click on your favorite media player to listen:
Listen with WinAmp to VCBI Radar  Listen with iTunes to VCBI Radar  Click here to listen if using Real Player  Click here to listen if using Windows Media Player

Or simply listen in your browser:

Listen right in your browser(in browser, requires Flash)

VCBI 280610Z 24010KT 210V280 9999 FEW017 30/23 Q1010 NOSIG

VCBI Flight Activity (Flightaware)

Listeners: 0 out of 598 total

Colombo Radar: 126.000

VGHS Tower/Ground
Dhaka, Bangladesh

Feed Status: DOWN
Offline since: 2016-09-23 09:02:03 UTC
VGHS 280700Z 00000KT 4000 HZ FEW008 SCT012 BKN100 28/26 Q1005 TEMPO RA

Bangladesh Ground: 121.800
Bangladesh Tower: 118.300
Dhaka Control (Lower): 126.700
Dhaka Control (Upper): 125.700

VHHH App/Dep/Radar (Archives)
Hong Kong, Hong Kong

Feed Status: UP

Click on your favorite media player to listen:
Listen with WinAmp to VHHH App/Dep/Radar  Listen with iTunes to VHHH App/Dep/Radar  Click here to listen if using Real Player  Click here to listen if using Windows Media Player

Or simply listen in your browser:

Listen right in your browser(in browser, requires Flash)

VHHH 280700Z 31014KT 9999 FEW045 32/21 Q0998 NOSIG

VHHH Flight Activity (Flightaware)

Listeners: 2 out of 598 total

Hong Kong Approach: 119.100
Hong Kong Departure Control: 122.000
Hong Kong Departure Control: 123.800
Hong Kong Director: 119.500
Hong Kong Zone Control: 120.600


Note: Feed manually alternates between listed frequencies.

VHHH Approach 119.1 #1 (Archives)
Hong Kong, Hong Kong

Feed Status: UP

Click on your favorite media player to listen:
Listen with WinAmp to VHHH Approach 119.1 #1  Listen with iTunes to VHHH Approach 119.1 #1  Click here to listen if using Real Player  Click here to listen if using Windows Media Player

Or simply listen in your browser:

Listen right in your browser(in browser, requires Flash)

VHHH 280700Z 31014KT 9999 FEW045 32/21 Q0998 NOSIG

VHHH Flight Activity (Flightaware)

Listeners: 2 out of 598 total

Hong Kong Approach: 119.100

VHHH Approach 119.1 #2 (Archives)
Hong Kong, Hong Kong

Feed Status: UP

Click on your favorite media player to listen:
Listen with WinAmp to VHHH Approach 119.1 #2  Listen with iTunes to VHHH Approach 119.1 #2  Click here to listen if using Real Player  Click here to listen if using Windows Media Player

Or simply listen in your browser:

Listen right in your browser(in browser, requires Flash)

VHHH 280700Z 31014KT 9999 FEW045 32/21 Q0998 NOSIG

VHHH Flight Activity (Flightaware)

Listeners: 0 out of 598 total

Hong Kong Approach: 119.100

VHHH ATIS (Archives)
Hong Kong, Hong Kong

Feed Status: UP

Click on your favorite media player to listen:
Listen with WinAmp to VHHH ATIS  Listen with iTunes to VHHH ATIS  Click here to listen if using Real Player  Click here to listen if using Windows Media Player

Or simply listen in your browser:

Listen right in your browser(in browser, requires Flash)

VHHH 280700Z 31014KT 9999 FEW045 32/21 Q0998 NOSIG

VHHH Flight Activity (Flightaware)

Listeners: 0 out of 598 total

Hong Kong Arrival ATIS: 128.200

VHHH Clearance Delivery (Archives)
Hong Kong, Hong Kong

Feed Status: UP

Click on your favorite media player to listen:
Listen with WinAmp to VHHH Clearance Delivery  Listen with iTunes to VHHH Clearance Delivery  Click here to listen if using Real Player  Click here to listen if using Windows Media Player

Or simply listen in your browser:

Listen right in your browser(in browser, requires Flash)

VHHH 280700Z 31014KT 9999 FEW045 32/21 Q0998 NOSIG

VHHH Flight Activity (Flightaware)

Listeners: 2 out of 598 total

Hong Kong Clearance Delivery: 129.900

VHHH Departure 123.8 (Archives)
Hong Kong, Hong Kong

Feed Status: UP

Click on your favorite media player to listen:
Listen with WinAmp to VHHH Departure 123.8  Listen with iTunes to VHHH Departure 123.8  Click here to listen if using Real Player  Click here to listen if using Windows Media Player

Or simply listen in your browser:

Listen right in your browser(in browser, requires Flash)

VHHH 280700Z 31014KT 9999 FEW045 32/21 Q0998 NOSIG

VHHH Flight Activity (Flightaware)

Listeners: 0 out of 598 total

Hong Kong Departure: 123.800

VHHH Director (Archives)
Hong Kong, Hong Kong

Feed Status: UP

Click on your favorite media player to listen:
Listen with WinAmp to VHHH Director  Listen with iTunes to VHHH Director  Click here to listen if using Real Player  Click here to listen if using Windows Media Player

Or simply listen in your browser:

Listen right in your browser(in browser, requires Flash)

VHHH 280700Z 31014KT 9999 FEW045 32/21 Q0998 NOSIG

VHHH Flight Activity (Flightaware)

Listeners: 0 out of 598 total

Hong Kong Director: 119.500

VHHH Ground (Archives)
Hong Kong, Hong Kong

Feed Status: UP

Click on your favorite media player to listen:
Listen with WinAmp to VHHH Ground  Listen with iTunes to VHHH Ground  Click here to listen if using Real Player  Click here to listen if using Windows Media Player

Or simply listen in your browser:

Listen right in your browser(in browser, requires Flash)

VHHH 280700Z 31014KT 9999 FEW045 32/21 Q0998 NOSIG

VHHH Flight Activity (Flightaware)

Listeners: 0 out of 598 total

Hong Kong Ground (North): 121.600
Hong Kong Ground (South): 122.550

VHHH Ground (North) (Archives)
Hong Kong, Hong Kong

Feed Status: UP

Click on your favorite media player to listen:
Listen with WinAmp to VHHH Ground (North)  Listen with iTunes to VHHH Ground (North)  Click here to listen if using Real Player  Click here to listen if using Windows Media Player

Or simply listen in your browser:

Listen right in your browser(in browser, requires Flash)

VHHH 280700Z 31014KT 9999 FEW045 32/21 Q0998 NOSIG

VHHH Flight Activity (Flightaware)

Listeners: 1 out of 598 total

Hong Kong Ground (North): 121.600

VHHH Ground (South) (Archives)
Hong Kong, Hong Kong

Feed Status: UP

Click on your favorite media player to listen:
Listen with WinAmp to VHHH Ground (South)  Listen with iTunes to VHHH Ground (South)  Click here to listen if using Real Player  Click here to listen if using Windows Media Player

Or simply listen in your browser:

Listen right in your browser(in browser, requires Flash)

VHHH 280700Z 31014KT 9999 FEW045 32/21 Q0998 NOSIG

VHHH Flight Activity (Flightaware)

Listeners: 0 out of 598 total

Hong Kong Ground (South): 122.550

VHHH Tower (Archives)
Hong Kong, Hong Kong

Feed Status: UP

Click on your favorite media player to listen:
Listen with WinAmp to VHHH Tower  Listen with iTunes to VHHH Tower  Click here to listen if using Real Player  Click here to listen if using Windows Media Player

Or simply listen in your browser:

Listen right in your browser(in browser, requires Flash)

VHHH 280700Z 31014KT 9999 FEW045 32/21 Q0998 NOSIG

VHHH Flight Activity (Flightaware)

Listeners: 2 out of 598 total

Hong Kong Tower (North): 118.200
Hong Kong Tower (South): 118.400

VHHH Tower (North) (Archives)
Hong Kong, Hong Kong

Feed Status: UP

Click on your favorite media player to listen:
Listen with WinAmp to VHHH Tower (North)  Listen with iTunes to VHHH Tower (North)  Click here to listen if using Real Player  Click here to listen if using Windows Media Player

Or simply listen in your browser:

Listen right in your browser(in browser, requires Flash)

VHHH 280700Z 31014KT 9999 FEW045 32/21 Q0998 NOSIG

VHHH Flight Activity (Flightaware)

Listeners: 0 out of 598 total

Hong Kong Tower (North): 118.200

VHHH Tower (South) (Archives)
Hong Kong, Hong Kong

Feed Status: UP

Click on your favorite media player to listen:
Listen with WinAmp to VHHH Tower (South)  Listen with iTunes to VHHH Tower (South)  Click here to listen if using Real Player  Click here to listen if using Windows Media Player

Or simply listen in your browser:

Listen right in your browser(in browser, requires Flash)

VHHH 280700Z 31014KT 9999 FEW045 32/21 Q0998 NOSIG

VHHH Flight Activity (Flightaware)

Listeners: 3 out of 598 total

Hong Kong Tower (South): 118.400

VHHH Zone (Archives)
Hong Kong, Hong Kong

Feed Status: UP

Click on your favorite media player to listen:
Listen with WinAmp to VHHH Zone  Listen with iTunes to VHHH Zone  Click here to listen if using Real Player  Click here to listen if using Windows Media Player

Or simply listen in your browser:

Listen right in your browser(in browser, requires Flash)

VHHH 280700Z 31014KT 9999 FEW045 32/21 Q0998 NOSIG

VHHH Flight Activity (Flightaware)

Listeners: 0 out of 598 total

Hong Kong Zone: 120.600

VTBS App/Dep (Archives)
Bangkok, Thailand

Feed Status: UP

Click on your favorite media player to listen:
Listen with WinAmp to VTBS App/Dep  Listen with iTunes to VTBS App/Dep  Click here to listen if using Real Player  Click here to listen if using Windows Media Player

Or simply listen in your browser:

Listen right in your browser(in browser, requires Flash)

VTBS 280630Z 21009KT 160V280 9999 FEW020 SCT060 32/24 Q1006 NOSIG

VTBS Flight Activity (Flightaware)

Listeners: 0 out of 598 total

Bangkok Approach: 122.350
Bangkok Approach: 124.350
Bangkok Approach: 125.200
Bangkok Approach: 119.400
Bangkok Approach: 125.800
Bangkok Approach/Departure: 119.100
Bangkok Approach/Departure: 121.700
Bangkok Arrival: 121.100

VTBS Gnd/Twr (Archives)
Bangkok, Thailand

Feed Status: UP

Click on your favorite media player to listen:
Listen with WinAmp to VTBS Gnd/Twr  Listen with iTunes to VTBS Gnd/Twr  Click here to listen if using Real Player  Click here to listen if using Windows Media Player

Or simply listen in your browser:

Listen right in your browser(in browser, requires Flash)

VTBS 280630Z 21009KT 160V280 9999 FEW020 SCT060 32/24 Q1006 NOSIG

VTBS Flight Activity (Flightaware)

Listeners: 0 out of 598 total

Bangkok Ground: 121.650
Bangkok Ground: 121.750
Bangkok Ground: 121.950
Bangkok Tower: 119.000
Bangkok Tower: 118.200

VTSS Approach (Archives)
Songkhla, Thailand

Feed Status: UP

Click on your favorite media player to listen:
Listen with WinAmp to VTSS Approach  Listen with iTunes to VTSS Approach  Click here to listen if using Real Player  Click here to listen if using Windows Media Player

Or simply listen in your browser:

Listen right in your browser(in browser, requires Flash)

VTSS 280630Z 27015KT 9999 VCSH SCT020 SCT100 33/22 Q1007 NOSIG

VTSS Flight Activity (Flightaware)

Listeners: 0 out of 598 total

Hat Yai Approach: 126.700

VVTS Gnd/Twr/App/Control (Archives)
Ho Chi Minh City, Vietnam

Feed Status: UP

Click on your favorite media player to listen:
Listen with WinAmp to VVTS Gnd/Twr/App/Control  Listen with iTunes to VVTS Gnd/Twr/App/Control  Click here to listen if using Real Player  Click here to listen if using Windows Media Player

Or simply listen in your browser:

Listen right in your browser(in browser, requires Flash)

VVTS 280630Z 32005KT 280V360 9999 BKN015 32/24 Q1004 NOSIG

VVTS Flight Activity (Flightaware)

Listeners: 0 out of 598 total

Ho Chi Minh Clearance Delivery: 121.800
Ho Chi Minh Control: 120.900
Ho Chi Minh Ground: 121.900
Ho Chi Minh Tower: 118.700
Tan Son Nhat Approach/Departure: 125.500

WARR Gnd/Twr/Radar (Archives)
Surabaya, Indonesia

Feed Status: UP

Click on your favorite media player to listen:
Listen with WinAmp to WARR Gnd/Twr/Radar  Listen with iTunes to WARR Gnd/Twr/Radar  Click here to listen if using Real Player  Click here to listen if using Windows Media Player

Or simply listen in your browser:

Listen right in your browser(in browser, requires Flash)

WARR 280630Z 10011KT 9999 SCT017CB 31/24 Q1007 NOSIG


Listeners: 1 out of 598 total

Juanda Ground: 119.150
Juanda Tower: 118.300
Surabaya Director: 123.200
Surabaya East Control: 124.000
Surabaya West Control: 125.100

WBKK Gnd/Twr/App (Archives)
Kota Kinabalu, Malaysia

Feed Status: UP

Click on your favorite media player to listen:
Listen with WinAmp to WBKK Gnd/Twr/App  Listen with iTunes to WBKK Gnd/Twr/App  Click here to listen if using Real Player  Click here to listen if using Windows Media Player

Or simply listen in your browser:

Listen right in your browser(in browser, requires Flash)

WBKK 280630Z 25003KT 9999 FEW014 SCT140 BKN270 32/26 Q1007 NOSIG


Listeners: 1 out of 598 total

Kinabalu Director: 119.100
Kinabalu Ground: 121.600
Kinabalu Radar: 126.100
Kinabalu Radar: 132.450
Kinabalu Tower: 118.300

WIPP Gnd/Twr/App/Dep
Palembang, Indonesia

Feed Status: DOWN
Offline since: 2016-08-15 18:54:04 UTC
WIPP 280630Z 04005KT 9999 SCT012 32/23 Q1006 NOSIG

Palembang Approach/Departure/Center: 119.200
Palembang Ground/Tower: 118.100

WMKB Radar (Archives)
Penang, Malaysia

Feed Status: UP

Click on your favorite media player to listen:
Listen with WinAmp to WMKB Radar  Listen with iTunes to WMKB Radar  Click here to listen if using Real Player  Click here to listen if using Windows Media Player

Or simply listen in your browser:

Listen right in your browser(in browser, requires Flash)

WMKB 280600Z 32007KT 250V010 9999 SCT020 SCT140 BKN270 30/25 Q1008 NOSIG


Listeners: 2 out of 598 total

Butterworth Radar: 125.800

Lumpur Control/Radar (North) (Archives)
Sepang, Malaysia

Feed Status: UP

Click on your favorite media player to listen:
Listen with WinAmp to Lumpur Control/Radar (North)  Listen with iTunes to Lumpur Control/Radar (North)  Click here to listen if using Real Player  Click here to listen if using Windows Media Player

Or simply listen in your browser:

Listen right in your browser(in browser, requires Flash)

WMKK 280630Z 30010KT 230V350 9999 FEW018 SCT140 BKN280 33/22 Q1007 NOSIG


Listeners: 1 out of 598 total

Lumpur Control/Radar (North): 132.800

Lumpur Control/Radar (South)
Sepang, Malaysia

Feed Status: DOWN
Offline since: 2016-09-28 06:38:04 UTC
WMKK 280630Z 30010KT 230V350 9999 FEW018 SCT140 BKN280 33/22 Q1007 NOSIG

Lumpur Control/Radar (South): 123.750

WMKK Lumpur Control/Radar (East)
Sepang, Malaysia

Feed Status: DOWN
Offline since: 2016-09-28 05:59:03 UTC
WMKK 280630Z 30010KT 230V350 9999 FEW018 SCT140 BKN280 33/22 Q1007 NOSIG

Lumpur Contro/Radar (East): 134.250

WMKP Tower (Archives)
Penang, Malaysia

Feed Status: UP

Click on your favorite media player to listen:
Listen with WinAmp to WMKP Tower  Listen with iTunes to WMKP Tower  Click here to listen if using Real Player  Click here to listen if using Windows Media Player

Or simply listen in your browser:

Listen right in your browser(in browser, requires Flash)

WMKP 280630Z 34004KT 8000 -RA FEW020 SCT023 BKN270 31/25 Q1007 NOSIG


Listeners: 0 out of 598 total

Penang Tower: 121.100

WMSA/WMKK Twr/App/Radar (Archives)
Subang, Malaysia

Feed Status: UP

Click on your favorite media player to listen:
Listen with WinAmp to WMSA/WMKK Twr/App/Radar  Listen with iTunes to WMSA/WMKK Twr/App/Radar  Click here to listen if using Real Player  Click here to listen if using Windows Media Player

Or simply listen in your browser:

Listen right in your browser(in browser, requires Flash)

WMSA 280600Z 31008KT 9999 FEW019 SCT140 BKN290 32/22 Q1008


Listeners: 0 out of 598 total

Air Force Ground: 125.200
Air Force Ground: 120.300
Lumpur Approach: 119.450
Lumpur Approach: 132.800
Lumpur Approach: 132.600
Lumpur Approach: 133.400
Lumpur Approach: 123.750
Lumpur Director: 125.100
Lumpur Director: 124.200
Lumpur Tower: 118.500
Lumpur Tower: 118.800
Misc-TBD:
Subang Tower: 118.200

ZBAA Tower (Archives)
Beijing, China

Feed Status: UP

Click on your favorite media player to listen:
Listen with WinAmp to ZBAA Tower  Listen with iTunes to ZBAA Tower  Click here to listen if using Real Player  Click here to listen if using Windows Media Player

Or simply listen in your browser:

Listen right in your browser(in browser, requires Flash)

ZBAA 280630Z 03002MPS 320V120 CAVOK 20/M01 Q1024 NOSIG


Listeners: 1 out of 598 total

Beijing Tower (Rwy 01/19): 118.600

ZGKL App/Control (Archives)
Guilin, China

Feed Status: UP

Click on your favorite media player to listen:
Listen with WinAmp to ZGKL App/Control  Listen with iTunes to ZGKL App/Control  Click here to listen if using Real Player  Click here to listen if using Windows Media Player

Or simply listen in your browser:

Listen right in your browser(in browser, requires Flash)

ZGKL 280600Z 30005MPS 260V330 9999 FEW036 31/22 Q1007 BECMG FM0800 02005MPS


Listeners: 0 out of 598 total

Guilin Approach: 120.850
Guilin Control: 133.600

ZLXY Twr/App (Archives)
Xian, China

Feed Status: UP

Click on your favorite media player to listen:
Listen with WinAmp to ZLXY Twr/App  Listen with iTunes to ZLXY Twr/App  Click here to listen if using Real Player  Click here to listen if using Windows Media Player

Or simply listen in your browser:

Listen right in your browser(in browser, requires Flash)

ZLXY 280600Z 08005MPS CAVOK 22/12 Q1021 NOSIG


Listeners: 2 out of 598 total

Xian Approach 01: 125.100
Xian Approach 02: 119.050
Xian Approach 03: 119.600
Xian Approach 04: 119.900
Xian Tower (North): 124.300
Xian Tower (South): 130.450

ZUGY Gnd/Twr (Archives)
Guiyang, China

Feed Status: UP

Click on your favorite media player to listen:
Listen with WinAmp to ZUGY Gnd/Twr  Listen with iTunes to ZUGY Gnd/Twr  Click here to listen if using Real Player  Click here to listen if using Windows Media Player

Or simply listen in your browser:

Listen right in your browser(in browser, requires Flash)

ZUGY 280600Z 01006MPS 340V040 9999 BKN030 25/16 Q1017 NOSIG


Listeners: out of 598 total

Guiyang Tower: 118.300